createdAt,value
2023-02-11T00:01:12.418Z,-5.31
2023-02-11T00:03:46.035Z,-5.35
2023-02-11T00:06:20.289Z,-5.34
2023-02-11T00:08:54.261Z,-5.36
2023-02-11T00:11:31.178Z,-5.38
2023-02-11T00:14:08.379Z,-5.42
2023-02-11T00:16:42.570Z,-5.42
2023-02-11T00:19:16.611Z,-5.45
2023-02-11T00:21:50.586Z,-5.47
2023-02-11T00:24:24.747Z,-5.49
2023-02-11T00:26:58.342Z,-5.52
2023-02-11T00:29:31.947Z,-5.54
2023-02-11T00:32:06.160Z,-5.55
2023-02-11T00:34:40.221Z,-5.57
2023-02-11T00:37:14.081Z,-5.60
2023-02-11T00:39:50.442Z,-5.63
2023-02-11T00:42:24.440Z,-5.64
2023-02-11T00:44:58.313Z,-5.65
2023-02-11T00:47:32.505Z,-5.67
2023-02-11T00:50:08.528Z,-5.70
2023-02-11T00:52:42.793Z,-5.70
2023-02-11T00:55:17.252Z,-5.73
2023-02-11T00:57:51.939Z,-5.75
2023-02-11T01:00:25.778Z,-5.78
2023-02-11T01:02:59.781Z,-5.79
2023-02-11T01:05:33.895Z,-5.81
2023-02-11T01:08:08.712Z,-5.84
2023-02-11T01:10:44.292Z,-5.87
2023-02-11T01:13:17.869Z,-5.90
2023-02-11T01:15:51.591Z,-5.91
2023-02-11T01:18:25.542Z,-5.95
2023-02-11T01:20:59.689Z,-5.98
2023-02-11T01:23:33.913Z,-5.99
2023-02-11T01:26:08.421Z,-6.01
2023-02-11T01:28:42.327Z,-6.03
2023-02-11T01:31:15.858Z,-6.05
2023-02-11T01:33:49.307Z,-6.07
2023-02-11T01:36:23.745Z,-6.10
2023-02-11T01:38:57.366Z,-6.12
2023-02-11T01:41:32.171Z,-6.14
2023-02-11T01:44:27.039Z,-6.16
2023-02-11T01:47:01.172Z,-6.21
2023-02-11T01:49:37.913Z,-6.23
2023-02-11T01:52:16.419Z,-6.25
2023-02-11T01:55:11.366Z,-6.26
2023-02-11T01:57:48.744Z,-6.28
2023-02-11T02:00:26.880Z,-6.31
2023-02-11T02:03:06.383Z,-6.32
2023-02-11T02:05:46.790Z,-6.33
2023-02-11T02:08:24.760Z,-6.32
2023-02-11T02:11:01.075Z,-6.32
2023-02-11T02:13:36.285Z,-6.34
2023-02-11T02:16:14.377Z,-6.32
2023-02-11T02:18:57.988Z,-6.32
2023-02-11T02:22:00.864Z,-6.34
2023-02-11T02:25:01.535Z,-6.33
2023-02-11T02:27:46.360Z,-6.31
2023-02-11T02:30:58.984Z,-6.29
2023-02-11T02:33:44.359Z,-6.26
2023-02-11T02:36:25.333Z,-6.23
2023-02-11T02:39:03.128Z,-6.14
2023-02-11T02:41:39.413Z,-6.09
2023-02-11T02:44:13.353Z,-6.08
2023-02-11T02:46:47.535Z,-6.06
2023-02-11T02:49:21.711Z,-6.03
2023-02-11T02:52:13.743Z,-6.02
2023-02-11T02:55:08.850Z,-6.02
2023-02-11T02:57:58.437Z,-6.04
2023-02-11T03:00:38.663Z,-6.07
2023-02-11T03:03:25.013Z,-6.08
2023-02-11T03:06:05.179Z,-6.11
2023-02-11T03:08:45.278Z,-6.14
2023-02-11T03:11:21.808Z,-6.15
2023-02-11T03:13:57.604Z,-6.17
2023-02-11T03:16:36.495Z,-6.18
2023-02-11T03:19:15.020Z,-6.23
2023-02-11T03:21:51.861Z,-6.26
2023-02-11T03:24:30.776Z,-6.28
2023-02-11T03:27:09.650Z,-6.30
2023-02-11T03:29:52.056Z,-6.34
2023-02-11T03:32:30.339Z,-6.38
2023-02-11T03:35:09.318Z,-6.39
2023-02-11T03:37:50.259Z,-6.41
2023-02-11T03:40:27.671Z,-6.42
2023-02-11T03:43:05.012Z,-6.42
2023-02-11T03:45:40.975Z,-6.45
2023-02-11T03:48:20.572Z,-6.47
2023-02-11T03:50:56.831Z,-6.50
2023-02-11T03:53:30.970Z,-6.53
2023-02-11T03:56:09.421Z,-6.54
2023-02-11T03:58:45.620Z,-6.58
2023-02-11T04:01:19.443Z,-6.61
2023-02-11T04:03:53.084Z,-6.64
2023-02-11T04:06:27.297Z,-6.67
2023-02-11T04:09:01.094Z,-6.71
2023-02-11T04:11:35.182Z,-6.71
2023-02-11T04:14:09.517Z,-6.73
2023-02-11T04:16:43.293Z,-6.76
2023-02-11T04:19:17.124Z,-6.79
2023-02-11T04:21:51.343Z,-6.82
2023-02-11T04:24:25.764Z,-6.84
2023-02-11T04:26:59.432Z,-6.88
2023-02-11T04:29:33.537Z,-6.90
2023-02-11T04:32:07.239Z,-6.93
2023-02-11T04:34:41.821Z,-6.96
2023-02-11T04:37:16.673Z,-6.95
2023-02-11T04:39:50.834Z,-6.98
2023-02-11T04:42:25.307Z,-7.02
2023-02-11T04:44:59.180Z,-7.07
2023-02-11T04:47:32.872Z,-7.07
2023-02-11T04:50:07.175Z,-7.11
2023-02-11T04:52:40.974Z,-7.13
2023-02-11T04:55:15.162Z,-7.15
2023-02-11T04:57:48.954Z,-7.18
2023-02-11T05:00:22.813Z,-7.19
2023-02-11T05:02:57.114Z,-7.21
2023-02-11T05:05:31.168Z,-7.25
2023-02-11T05:08:05.334Z,-7.28
2023-02-11T05:10:39.604Z,-7.30
2023-02-11T05:13:13.965Z,-7.33
2023-02-11T05:15:46.852Z,-7.36
2023-02-11T05:18:20.769Z,-7.40
2023-02-11T05:20:54.358Z,-7.42
2023-02-11T05:23:28.385Z,-7.44
2023-02-11T05:26:02.369Z,-7.46
2023-02-11T05:28:36.298Z,-7.49
2023-02-11T05:31:10.566Z,-7.51
2023-02-11T05:33:44.571Z,-7.56
2023-02-11T05:36:19.044Z,-7.54
2023-02-11T05:38:53.263Z,-7.57
2023-02-11T05:41:27.237Z,-7.57
2023-02-11T05:44:01.452Z,-7.58
2023-02-11T05:46:35.145Z,-7.58
2023-02-11T05:49:09.057Z,-7.59
2023-02-11T05:51:42.955Z,-7.59
2023-02-11T05:54:17.121Z,-7.62
2023-02-11T05:56:51.901Z,-7.61
2023-02-11T05:59:26.729Z,-7.61
2023-02-11T06:02:00.822Z,-7.62
2023-02-11T06:04:35.154Z,-7.61
2023-02-11T06:07:09.235Z,-7.63
2023-02-11T06:09:43.082Z,-7.63
2023-02-11T06:12:17.387Z,-7.61
2023-02-11T06:14:51.802Z,-7.61
2023-02-11T06:17:26.400Z,-7.59
2023-02-11T06:20:01.037Z,-7.57
2023-02-11T06:22:35.078Z,-7.55
2023-02-11T06:25:11.434Z,-7.54
2023-02-11T06:27:44.922Z,-7.53
2023-02-11T06:30:19.805Z,-7.53
2023-02-11T06:32:53.660Z,-7.51
2023-02-11T06:35:27.967Z,-7.52
2023-02-11T06:38:01.979Z,-7.51
2023-02-11T06:40:36.596Z,-7.49
2023-02-11T06:43:10.713Z,-7.47
2023-02-11T06:45:44.412Z,-7.44
2023-02-11T06:48:17.862Z,-7.42
2023-02-11T06:50:52.220Z,-7.39
2023-02-11T06:53:26.025Z,-7.38
2023-02-11T06:56:03.266Z,-7.37
2023-02-11T06:58:37.283Z,-7.33
2023-02-11T07:01:14.608Z,-7.28
2023-02-11T07:03:48.895Z,-7.26
2023-02-11T07:06:24.878Z,-7.24
2023-02-11T07:08:59.497Z,-7.22
2023-02-11T07:11:34.687Z,-7.18
2023-02-11T07:14:09.887Z,-7.17
2023-02-11T07:16:43.368Z,-7.12
2023-02-11T07:19:17.781Z,-7.09
2023-02-11T07:21:51.588Z,-7.07
2023-02-11T07:24:25.395Z,-7.01
2023-02-11T07:26:59.875Z,-6.96
2023-02-11T07:29:33.887Z,-6.92
2023-02-11T07:32:07.878Z,-6.87
2023-02-11T07:34:41.893Z,-6.81
2023-02-11T07:37:16.254Z,-6.75
2023-02-11T07:39:50.473Z,-6.69
2023-02-11T07:42:24.471Z,-6.64
2023-02-11T07:44:58.177Z,-6.57
2023-02-11T07:47:32.299Z,-6.52
2023-02-11T07:50:07.121Z,-6.44
2023-02-11T07:52:41.200Z,-6.38
2023-02-11T07:55:15.543Z,-6.32
2023-02-11T07:57:49.157Z,-6.24
2023-02-11T08:00:23.761Z,-6.20
2023-02-11T08:02:58.658Z,-6.10
2023-02-11T08:05:33.214Z,-6.01
2023-02-11T08:08:07.663Z,-5.94
2023-02-11T08:10:41.635Z,-5.84
2023-02-11T08:13:15.715Z,-5.76
2023-02-11T08:15:48.925Z,-5.69
2023-02-11T08:18:22.806Z,-5.61
2023-02-11T08:20:57.468Z,-5.51
2023-02-11T08:23:31.266Z,-5.43
2023-02-11T08:26:07.171Z,-5.34
2023-02-11T08:28:42.507Z,-5.25
2023-02-11T08:31:19.269Z,-5.17
2023-02-11T08:33:54.814Z,-5.09
2023-02-11T08:36:30.233Z,-4.99
2023-02-11T08:39:17.950Z,-4.90
2023-02-11T08:41:54.629Z,-4.77
2023-02-11T08:44:28.594Z,-4.62
2023-02-11T08:47:02.535Z,-4.48
2023-02-11T08:49:36.656Z,-4.32
2023-02-11T08:52:10.548Z,-4.15
2023-02-11T08:54:44.426Z,-4.00
